Time;durP1;ratioP1;P1;durP2;ratioP2;P2;SDS_P1;SDS_P2;PMS_P1;PMS_P2;Temp;Humidity;BMP_temperature;BMP_pressure;BME280_temperature;BME280_humidity;BME280_pressure;Samples;Min_cycle;Max_cycle;Signal;HPM_P1;HPM_P2
2024/01/02 00:00:52;;;;;;;13.48;3.03;;;6.10;99.90;;;;;;5054270;28;20091;-68
2024/01/02 00:03:18;;;;;;;14.95;3.25;;;6.10;99.90;;;;;;5054392;28;20049;-68
2024/01/02 00:05:43;;;;;;;12.20;2.90;;;6.10;99.90;;;;;;5037790;28;20041;-68
2024/01/02 00:08:09;;;;;;;11.98;3.10;;;6.10;99.90;;;;;;5021651;28;20043;-69
2024/01/02 00:10:35;;;;;;;13.48;3.00;;;6.10;99.90;;;;;;5054392;28;20040;-68
2024/01/02 00:13:01;;;;;;;10.82;3.13;;;6.10;99.90;;;;;;5037762;28;20053;-68
2024/01/02 00:15:26;;;;;;;12.60;3.17;;;6.00;99.90;;;;;;5021186;28;20456;-68
2024/01/02 00:17:52;;;;;;;13.02;3.20;;;6.00;99.90;;;;;;5038238;28;20134;-68
2024/01/02 00:20:18;;;;;;;11.32;2.80;;;6.00;99.90;;;;;;5058074;28;20040;-69
2024/01/02 00:22:44;;;;;;;12.75;3.22;;;6.00;99.90;;;;;;5057959;28;20087;-68
2024/01/02 00:25:09;;;;;;;12.63;2.50;;;6.00;99.90;;;;;;5041360;28;20050;-68
2024/01/02 00:27:35;;;;;;;10.32;2.78;;;6.00;99.90;;;;;;5041308;28;20515;-68
2024/01/02 00:30:01;;;;;;;10.07;2.60;;;6.10;99.90;;;;;;5057821;28;20408;-68
2024/01/02 00:32:27;;;;;;;13.68;2.53;;;6.10;99.90;;;;;;5041275;28;20508;-68
2024/01/02 00:34:52;;;;;;;11.98;2.67;;;6.10;99.90;;;;;;5057702;28;20546;-68
2024/01/02 00:37:18;;;;;;;12.18;2.28;;;6.10;99.90;;;;;;5057723;28;20032;-68
2024/01/02 00:39:44;;;;;;;7.57;2.15;;;6.10;99.90;;;;;;5041189;28;20048;-68
2024/01/02 00:42:10;;;;;;;8.88;2.05;;;6.10;99.90;;;;;;5041346;28;20388;-68
2024/01/02 00:44:35;;;;;;;9.80;2.30;;;6.10;99.90;;;;;;5040922;28;20044;-69
2024/01/02 00:47:01;;;;;;;7.85;2.00;;;6.10;99.90;;;;;;5024814;28;20507;-69
2024/01/02 00:49:27;;;;;;;8.95;1.98;;;6.10;99.90;;;;;;5041126;28;20098;-69
2024/01/02 00:51:53;;;;;;;7.00;1.70;;;6.10;99.90;;;;;;5041240;28;20117;-67
2024/01/02 00:54:18;;;;;;;7.85;1.83;;;6.20;99.90;;;;;;5041220;28;20085;-67
2024/01/02 00:56:44;;;;;;;8.43;2.35;;;6.10;99.90;;;;;;5040757;28;20048;-68
2024/01/02 00:59:13;;;;;;;11.48;2.13;;;6.10;99.90;;;;;;5057643;28;20037;-67
2024/01/02 01:01:38;;;;;;;11.40;2.35;;;6.20;99.90;;;;;;5057241;28;20060;-67
2024/01/02 01:04:04;;;;;;;10.20;2.05;;;6.20;99.90;;;;;;5057267;28;20044;-68
2024/01/02 01:06:30;;;;;;;10.93;2.38;;;6.20;99.90;;;;;;5040823;28;20079;-68
2024/01/02 01:08:56;;;;;;;9.93;2.28;;;6.30;99.90;;;;;;5057536;28;20097;-68
2024/01/02 01:11:21;;;;;;;9.10;2.25;;;6.30;99.90;;;;;;5040459;28;20040;-67
2024/01/02 01:13:47;;;;;;;5.25;1.50;;;6.40;99.90;;;;;;5040550;28;20109;-70
2024/01/02 01:16:13;;;;;;;10.60;1.92;;;6.40;99.90;;;;;;5057033;28;20040;-69
2024/01/02 01:18:39;;;;;;;8.13;2.00;;;6.40;99.90;;;;;;5023930;28;20396;-68
2024/01/02 01:21:05;;;;;;;10.77;2.40;;;6.50;99.90;;;;;;5057202;28;20043;-69
2024/01/02 01:23:30;;;;;;;13.27;2.53;;;6.40;99.90;;;;;;5023887;28;20041;-68
2024/01/02 01:25:56;;;;;;;9.90;2.55;;;6.40;99.90;;;;;;5057111;28;20063;-68
2024/01/02 01:28:22;;;;;;;13.68;2.80;;;6.40;99.90;;;;;;5056773;28;20123;-69
2024/01/02 01:30:48;;;;;;;6.57;1.83;;;6.40;99.90;;;;;;5040374;28;20036;-69
2024/01/02 01:33:13;;;;;;;8.27;2.75;;;6.50;99.90;;;;;;5040165;28;20040;-68
2024/01/02 01:35:39;;;;;;;11.82;3.50;;;6.40;99.90;;;;;;5056637;28;20041;-68
2024/01/02 01:38:05;;;;;;;14.63;3.40;;;6.50;99.90;;;;;;5056895;28;20496;-68
2024/01/02 01:40:30;;;;;;;15.43;3.53;;;6.50;99.90;;;;;;5040066;28;20037;-68
2024/01/02 01:42:56;;;;;;;9.45;2.60;;;6.50;99.90;;;;;;5040392;28;20059;-68
2024/01/02 01:45:22;;;;;;;10.88;3.10;;;6.40;99.90;;;;;;5056707;28;20040;-69
2024/01/02 01:47:48;;;;;;;8.50;2.08;;;6.50;99.90;;;;;;5056697;28;20052;-68
2024/01/02 01:50:14;;;;;;;11.82;2.63;;;6.50;99.90;;;;;;5023444;28;20045;-68
2024/01/02 01:52:41;;;;;;;10.23;3.10;;;6.50;99.90;;;;;;5039664;28;20047;-69
2024/01/02 01:55:07;;;;;;;9.95;2.88;;;6.50;99.90;;;;;;5039770;28;20053;-69
2024/01/02 01:57:33;;;;;;;7.97;3.10;;;6.50;99.90;;;;;;5056519;28;20043;-75
2024/01/02 01:59:59;;;;;;;7.80;2.20;;;6.50;99.90;;;;;;5039584;28;20040;-76
2024/01/02 02:02:25;;;;;;;14.65;4.00;;;6.50;99.90;;;;;;5039270;28;20113;-75
2024/01/02 02:04:53;;;;;;;13.73;3.78;;;6.40;99.90;;;;;;5056107;28;20049;-75
2024/01/02 02:07:19;;;;;;;13.70;4.22;;;6.50;99.90;;;;;;5056054;28;20045;-75
2024/01/02 02:09:45;;;;;;;16.38;4.15;;;6.50;99.90;;;;;;5039740;28;20040;-75
2024/01/02 02:12:11;;;;;;;14.65;3.83;;;6.50;99.90;;;;;;5056050;28;20084;-75
2024/01/02 02:14:37;;;;;;;8.88;2.05;;;6.50;99.90;;;;;;5023311;28;20032;-77
2024/01/02 02:17:02;;;;;;;5.80;1.83;;;6.50;99.90;;;;;;5039312;28;20140;-76
2024/01/02 02:19:28;;;;;;;10.20;3.55;;;6.60;99.90;;;;;;5039372;28;20037;-75
2024/01/02 02:21:56;;;;;;;6.82;2.28;;;6.60;99.90;;;;;;5023117;28;20489;-76
2024/01/02 02:24:23;;;;;;;10.98;1.90;;;6.60;99.90;;;;;;5039612;28;20045;-75
2024/01/02 02:26:49;;;;;;;11.98;4.05;;;6.60;99.90;;;;;;5056068;28;20100;-74
2024/01/02 02:29:15;;;;;;;6.70;2.45;;;6.60;99.90;;;;;;5055690;28;20077;-75
2024/01/02 02:31:40;;;;;;;6.50;2.63;;;6.60;99.90;;;;;;5056443;28;20127;-75
2024/01/02 02:34:06;;;;;;;5.63;1.90;;;6.60;99.90;;;;;;5039064;28;20074;-75
2024/01/02 02:36:32;;;;;;;9.32;2.80;;;6.60;99.90;;;;;;5055401;28;20037;-76
2024/01/02 02:38:58;;;;;;;10.73;3.00;;;6.60;99.90;;;;;;5022526;28;20058;-75
2024/01/02 02:41:23;;;;;;;14.48;3.92;;;6.60;99.90;;;;;;5055154;28;20553;-76
2024/01/02 02:43:49;;;;;;;9.35;2.97;;;6.60;99.90;;;;;;5039035;28;20508;-75
2024/01/02 02:46:17;;;;;;;7.28;2.00;;;6.60;99.90;;;;;;5055290;28;20036;-77
2024/01/02 02:48:42;;;;;;;9.43;2.45;;;6.60;99.90;;;;;;5038694;28;20067;-76
2024/01/02 02:51:10;;;;;;;6.10;2.17;;;6.60;99.90;;;;;;5022648;28;20493;-76
2024/01/02 02:53:36;;;;;;;5.80;2.05;;;6.60;99.90;;;;;;5038786;28;20439;-77
2024/01/02 02:56:02;;;;;;;8.60;2.88;;;6.70;99.90;;;;;;5038773;28;20044;-76
2024/01/02 02:58:27;;;;;;;8.00;2.67;;;6.70;99.90;;;;;;5055195;28;20040;-76
2024/01/02 03:00:53;;;;;;;7.28;2.65;;;6.70;99.90;;;;;;5038342;28;20056;-74
2024/01/02 03:03:19;;;;;;;10.55;2.97;;;6.70;99.90;;;;;;5038776;28;20040;-75
2024/01/02 03:05:45;;;;;;;9.30;2.28;;;6.70;99.90;;;;;;5055346;28;20511;-76
2024/01/02 03:08:11;;;;;;;4.30;1.85;;;6.70;99.90;;;;;;5038976;28;20044;-77
2024/01/02 03:10:37;;;;;;;7.30;2.53;;;6.60;99.90;;;;;;5054955;28;20131;-76
2024/01/02 03:13:03;;;;;;;12.10;2.72;;;6.70;99.90;;;;;;5054956;28;20045;-76
2024/01/02 03:15:28;;;;;;;10.13;3.38;;;6.70;99.90;;;;;;5022106;28;20067;-76
2024/01/02 03:17:54;;;;;;;8.57;2.33;;;6.70;99.90;;;;;;5038352;28;20037;-75
2024/01/02 03:20:20;;;;;;;14.20;4.20;;;6.70;99.90;;;;;;5054840;28;20044;-75
2024/01/02 03:22:46;;;;;;;11.77;2.95;;;6.70;99.90;;;;;;5038378;28;20036;-76
2024/01/02 03:25:12;;;;;;;4.93;1.38;;;6.70;99.90;;;;;;5038528;28;20101;-75
2024/01/02 03:27:38;;;;;;;7.05;2.53;;;6.70;99.90;;;;;;5038357;28;20430;-76
2024/01/02 03:30:05;;;;;;;12.30;3.13;;;6.70;99.90;;;;;;5005561;28;20504;-75
2024/01/02 03:32:30;;;;;;;4.35;1.63;;;6.70;99.90;;;;;;5054627;28;20040;-76
2024/01/02 03:34:56;;;;;;;10.52;3.15;;;6.80;99.90;;;;;;5054666;28;20048;-75
2024/01/02 03:37:22;;;;;;;4.88;1.73;;;6.80;99.90;;;;;;5021998;28;20059;-76
2024/01/02 03:39:48;;;;;;;7.95;2.05;;;6.80;99.90;;;;;;5054565;28;20040;-75
2024/01/02 03:42:14;;;;;;;3.33;1.20;;;6.80;99.90;;;;;;5038164;28;20047;-77
2024/01/02 03:44:39;;;;;;;6.20;1.60;;;6.80;99.90;;;;;;5037930;28;20033;-77
2024/01/02 03:47:05;;;;;;;4.55;1.50;;;6.80;99.90;;;;;;5037972;28;20041;-75
2024/01/02 03:49:31;;;;;;;8.18;1.60;;;6.80;99.90;;;;;;5054699;28;20565;-75
2024/01/02 03:51:56;;;;;;;4.90;1.15;;;6.80;99.90;;;;;;5038279;28;20044;-75
2024/01/02 03:54:22;;;;;;;5.60;1.85;;;6.80;99.90;;;;;;5057389;28;20051;-76
2024/01/02 03:56:48;;;;;;;5.60;1.20;;;6.80;99.90;;;;;;5041787;28;20049;-77
2024/01/02 03:59:13;;;;;;;5.72;1.90;;;6.80;99.90;;;;;;5058862;28;20500;-76
2024/01/02 04:01:45;;;;;;;6.25;1.60;;;6.80;99.90;;;;;;5041660;28;20139;-77
2024/01/02 04:04:11;;;;;;;8.30;2.13;;;6.80;99.90;;;;;;5058459;28;20055;-77
2024/01/02 04:06:37;;;;;;;10.77;1.92;;;6.80;99.90;;;;;;5025331;28;20448;-76
2024/01/02 04:09:03;;;;;;;4.65;1.70;;;6.80;99.90;;;;;;5042256;28;20153;-77
2024/01/02 04:11:28;;;;;;;4.15;1.20;;;6.80;99.90;;;;;;5025594;28;20047;-76
2024/01/02 04:13:54;;;;;;;5.72;1.50;;;6.80;99.90;;;;;;5042076;28;20070;-77
2024/01/02 04:16:20;;;;;;;5.45;1.65;;;6.80;99.90;;;;;;5041570;28;20089;-76
2024/01/02 04:18:49;;;;;;;6.05;1.33;;;6.80;99.90;;;;;;5025270;28;20038;-69
2024/01/02 04:21:15;;;;;;;7.45;1.83;;;6.80;99.90;;;;;;5058333;28;20504;-69
2024/01/02 04:23:41;;;;;;;4.20;1.70;;;6.80;99.90;;;;;;5058017;28;20102;-69
2024/01/02 04:26:06;;;;;;;3.75;1.25;;;6.80;99.90;;;;;;5058452;28;20036;-68
2024/01/02 04:28:32;;;;;;;3.30;1.15;;;6.80;99.90;;;;;;5008429;28;20058;-69
2024/01/02 04:30:59;;;;;;;4.88;1.75;;;6.80;99.90;;;;;;5041389;28;20040;-69
2024/01/02 04:33:25;;;;;;;3.75;1.30;;;6.80;99.90;;;;;;5041894;28;20053;-68
2024/01/02 04:35:51;;;;;;;4.47;1.30;;;6.80;99.90;;;;;;5041183;28;20051;-69
2024/01/02 04:38:17;;;;;;;4.65;1.30;;;6.90;99.90;;;;;;5041478;28;20249;-69
2024/01/02 04:40:42;;;;;;;3.63;1.38;;;6.90;99.90;;;;;;5057661;28;20040;-68
2024/01/02 04:43:08;;;;;;;4.97;1.38;;;6.90;99.90;;;;;;5041415;28;20037;-69
2024/01/02 04:45:34;;;;;;;3.60;1.10;;;6.90;99.90;;;;;;5024946;28;20499;-68
2024/01/02 04:48:00;;;;;;;4.63;1.25;;;6.90;99.90;;;;;;5041124;28;20041;-68
2024/01/02 04:50:26;;;;;;;4.88;1.27;;;6.90;99.90;;;;;;5057879;28;20094;-68
2024/01/02 04:52:52;;;;;;;4.45;1.23;;;7.00;99.90;;;;;;5057447;28;20086;-69
2024/01/02 04:55:17;;;;;;;3.75;1.27;;;6.90;99.90;;;;;;5040891;28;20132;-69
2024/01/02 04:57:43;;;;;;;3.03;1.02;;;7.00;99.90;;;;;;5040971;28;20040;-69
2024/01/02 05:00:09;;;;;;;4.35;0.98;;;6.90;99.90;;;;;;5040872;28;20040;-68
2024/01/02 05:02:35;;;;;;;2.67;1.02;;;6.90;99.90;;;;;;4992426;28;1160142;-69
2024/01/02 05:05:01;;;;;;;4.30;1.40;;;6.90;99.90;;;;;;5037108;28;20071;-68
2024/01/02 05:07:26;;;;;;;2.20;0.90;;;6.90;99.90;;;;;;5004595;28;20033;-68
2024/01/02 05:09:52;;;;;;;4.38;1.20;;;6.90;99.90;;;;;;4988543;28;20044;-68
2024/01/02 05:12:18;;;;;;;2.53;1.10;;;6.90;99.90;;;;;;5054046;28;20032;-68
2024/01/02 05:14:44;;;;;;;2.38;1.10;;;6.90;99.90;;;;;;5053742;28;20033;-68
2024/01/02 05:17:10;;;;;;;2.22;0.95;;;6.90;99.90;;;;;;5020334;28;20397;-68
2024/01/02 05:19:36;;;;;;;4.85;1.05;;;6.90;99.90;;;;;;5054145;28;20118;-68
2024/01/02 05:22:03;;;;;;;2.55;1.00;;;6.90;99.90;;;;;;5020812;28;20041;-69
2024/01/02 05:24:29;;;;;;;3.67;1.20;;;6.90;99.90;;;;;;5053673;28;20424;-69
2024/01/02 05:26:55;;;;;;;3.33;1.10;;;6.90;99.90;;;;;;5053542;28;20041;-68
2024/01/02 05:29:21;;;;;;;2.35;1.15;;;6.90;99.90;;;;;;5037106;28;20052;-77
2024/01/02 05:31:46;;;;;;;3.15;1.13;;;6.90;99.90;;;;;;5020251;28;20076;-75
2024/01/02 05:34:12;;;;;;;5.47;1.45;;;6.90;99.90;;;;;;5037275;28;20099;-74
2024/01/02 05:36:38;;;;;;;3.35;1.10;;;6.80;99.90;;;;;;5036770;28;20501;-75
2024/01/02 05:39:04;;;;;;;3.35;1.13;;;6.90;99.90;;;;;;5036872;28;20037;-76
2024/01/02 05:41:30;;;;;;;2.65;0.90;;;6.80;99.90;;;;;;5053307;28;20485;-75
2024/01/02 05:43:56;;;;;;;2.53;0.85;;;6.80;99.90;;;;;;5020126;28;20033;-74
2024/01/02 05:46:21;;;;;;;4.13;1.00;;;6.80;99.90;;;;;;5036491;28;20036;-75
2024/01/02 05:48:47;;;;;;;5.18;1.50;;;6.80;99.90;;;;;;5036836;28;20040;-74
2024/01/02 05:51:13;;;;;;;2.10;0.88;;;6.80;99.90;;;;;;5007260;28;20127;-74
2024/01/02 05:53:38;;;;;;;2.50;1.00;;;6.80;99.90;;;;;;5039960;28;20051;-75
2024/01/02 05:56:04;;;;;;;2.92;1.30;;;6.80;99.90;;;;;;5023308;28;20048;-74
2024/01/02 05:58:30;;;;;;;3.35;1.20;;;6.80;99.90;;;;;;5056558;28;20075;-75
2024/01/02 06:00:56;;;;;;;2.90;0.98;;;6.80;99.90;;;;;;5023652;28;20501;-76
2024/01/02 06:03:22;;;;;;;1.95;0.60;;;6.80;99.90;;;;;;5039348;28;20055;-76
2024/01/02 06:05:47;;;;;;;3.20;1.00;;;6.80;99.90;;;;;;5039576;28;20550;-76
2024/01/02 06:08:14;;;;;;;1.25;0.75;;;6.80;99.90;;;;;;5039613;28;20075;-75
2024/01/02 06:10:41;;;;;;;2.85;1.05;;;6.80;99.90;;;;;;5039683;28;20055;-75
2024/01/02 06:13:07;;;;;;;1.63;0.70;;;6.80;99.90;;;;;;5039728;28;20039;-75
2024/01/02 06:15:33;;;;;;;1.83;0.82;;;6.90;99.90;;;;;;5038942;28;20096;-76
2024/01/02 06:17:59;;;;;;;2.92;0.82;;;6.90;99.90;;;;;;5038849;28;20040;-75
2024/01/02 06:20:25;;;;;;;1.88;0.90;;;6.90;99.90;;;;;;5056009;28;20040;-74
2024/01/02 06:22:50;;;;;;;1.60;0.80;;;6.90;99.90;;;;;;5039264;28;20037;-76
2024/01/02 06:25:16;;;;;;;1.85;0.80;;;6.90;99.90;;;;;;5055873;28;20048;-77
2024/01/02 06:27:42;;;;;;;4.03;1.20;;;6.90;99.90;;;;;;5023028;28;20147;-75
2024/01/02 06:30:08;;;;;;;0.93;0.60;;;6.90;99.90;;;;;;5022809;28;20044;-76
2024/01/02 06:32:34;;;;;;;1.65;0.68;;;7.00;99.90;;;;;;5039585;28;20036;-75
2024/01/02 06:35:00;;;;;;;2.17;1.00;;;7.00;99.90;;;;;;5055274;28;20063;-75
2024/01/02 06:37:26;;;;;;;1.27;0.80;;;7.00;99.90;;;;;;5039274;28;20043;-75
2024/01/02 06:39:51;;;;;;;1.70;0.80;;;6.90;99.90;;;;;;5038931;28;20037;-74
2024/01/02 06:42:17;;;;;;;2.60;1.23;;;7.00;99.90;;;;;;5055819;28;20484;-74
2024/01/02 06:44:43;;;;;;;1.98;1.00;;;7.00;99.90;;;;;;5039064;28;20032;-73
2024/01/02 06:47:09;;;;;;;2.40;1.10;;;7.10;99.90;;;;;;5038575;28;20091;-73
2024/01/02 06:49:35;;;;;;;1.80;0.85;;;7.00;99.90;;;;;;5039022;28;20044;-73
2024/01/02 06:52:01;;;;;;;2.45;1.10;;;7.10;99.90;;;;;;5055470;28;20055;-74
2024/01/02 06:54:26;;;;;;;2.40;1.15;;;7.10;99.90;;;;;;5038991;28;20500;-74
2024/01/02 06:56:52;;;;;;;2.40;1.08;;;7.10;99.90;;;;;;5055399;28;20106;-74
2024/01/02 06:59:18;;;;;;;3.55;1.30;;;7.20;99.90;;;;;;5039102;28;20044;-74
2024/01/02 07:01:45;;;;;;;3.40;1.70;;;7.10;99.90;;;;;;5021982;28;20119;-73
2024/01/02 07:04:12;;;;;;;3.45;1.63;;;7.10;99.90;;;;;;5055638;28;20497;-73
2024/01/02 07:06:37;;;;;;;2.35;1.20;;;7.10;99.90;;;;;;5055520;28;20496;-74
2024/01/02 07:09:04;;;;;;;2.60;1.17;;;7.10;99.90;;;;;;5038940;28;20051;-73
2024/01/02 07:11:30;;;;;;;2.55;1.10;;;7.20;99.90;;;;;;5038696;28;20476;-73
2024/01/02 07:13:57;;;;;;;2.92;1.10;;;7.20;99.90;;;;;;5038567;28;20127;-74
2024/01/02 07:16:23;;;;;;;3.30;1.45;;;7.20;99.90;;;;;;5022217;28;20079;-73
2024/01/02 07:18:49;;;;;;;3.33;1.70;;;7.20;99.90;;;;;;5055113;28;20096;-74
2024/01/02 07:21:15;;;;;;;4.40;1.90;;;7.20;99.90;;;;;;5038364;28;20072;-74
2024/01/02 07:23:41;;;;;;;4.38;1.83;;;7.20;99.90;;;;;;5054761;28;20036;-74
2024/01/02 07:26:08;;;;;;;4.85;2.20;;;7.20;99.90;;;;;;5022192;28;20491;-74
2024/01/02 07:28:35;;;;;;;4.80;2.65;;;7.20;99.90;;;;;;5054830;28;20131;-73
2024/01/02 07:31:01;;;;;;;5.05;2.90;;;7.20;99.90;;;;;;5038169;28;20203;-74
2024/01/02 07:33:27;;;;;;;5.05;2.72;;;7.20;99.90;;;;;;5038395;28;20131;-75
2024/01/02 07:35:53;;;;;;;6.15;3.50;;;7.20;99.90;;;;;;5021775;28;20040;-74
2024/01/02 07:38:19;;;;;;;6.15;3.65;;;7.20;99.90;;;;;;5021835;28;20037;-74
2024/01/02 07:40:45;;;;;;;6.18;4.18;;;7.20;99.90;;;;;;5054778;28;20040;-74
2024/01/02 07:43:10;;;;;;;6.97;4.60;;;7.20;99.90;;;;;;5038446;28;20074;-74
2024/01/02 07:45:36;;;;;;;7.43;5.15;;;7.30;99.90;;;;;;5038219;28;20136;-75
2024/01/02 07:48:03;;;;;;;8.85;6.15;;;7.30;99.90;;;;;;5038528;28;20124;-74
2024/01/02 07:50:28;;;;;;;8.13;5.70;;;7.30;99.90;;;;;;5054933;28;20536;-74
2024/01/02 07:52:54;;;;;;;8.73;6.20;;;7.30;99.90;;;;;;5021767;28;20124;-74
2024/01/02 07:55:20;;;;;;;8.55;6.25;;;7.40;99.90;;;;;;5054729;28;20501;-75
2024/01/02 07:57:46;;;;;;;9.25;6.47;;;7.50;99.90;;;;;;5037687;28;20037;-75
2024/01/02 08:00:13;;;;;;;9.63;7.28;;;7.50;99.90;;;;;;5038162;28;20083;-74
2024/01/02 08:02:39;;;;;;;10.32;7.80;;;7.60;99.90;;;;;;5037983;28;20053;-74
2024/01/02 08:05:05;;;;;;;11.43;7.88;;;7.60;99.90;;;;;;5021336;28;20408;-75
2024/01/02 08:07:30;;;;;;;11.60;8.50;;;7.60;99.90;;;;;;5038036;28;20405;-74
2024/01/02 08:09:56;;;;;;;12.70;8.85;;;7.60;99.90;;;;;;5054544;28;20090;-75
2024/01/02 08:12:22;;;;;;;13.00;9.43;;;7.60;99.90;;;;;;5054431;28;20040;-74
2024/01/02 08:14:48;;;;;;;11.82;8.15;;;7.70;99.90;;;;;;5037958;28;20123;-74
2024/01/02 08:17:14;;;;;;;12.63;8.32;;;7.80;99.90;;;;;;5021250;28;20048;-75
2024/01/02 08:19:40;;;;;;;13.38;8.85;;;7.80;99.90;;;;;;5054565;28;20087;-75
2024/01/02 08:22:06;;;;;;;14.50;8.20;;;7.90;99.90;;;;;;5021307;28;20068;-75
2024/01/02 08:24:31;;;;;;;14.95;8.77;;;7.90;99.90;;;;;;5054203;28;20040;-75
2024/01/02 08:26:58;;;;;;;15.88;9.38;;;8.00;99.90;;;;;;5022026;28;20045;-75
2024/01/02 08:29:23;;;;;;;15.35;8.52;;;8.10;99.90;;;;;;5037557;28;20131;-75
2024/01/02 08:31:49;;;;;;;16.75;9.63;;;8.10;99.90;;;;;;5037736;28;20127;-75
2024/01/02 08:34:15;;;;;;;16.45;9.55;;;8.20;99.90;;;;;;5021252;28;20036;-73
2024/01/02 08:36:41;;;;;;;19.92;9.68;;;8.30;99.90;;;;;;5020995;28;20036;-75
2024/01/02 08:39:06;;;;;;;20.98;10.00;;;8.40;99.90;;;;;;5054962;28;20045;-75
2024/01/02 08:41:32;;;;;;;20.15;9.88;;;8.50;99.90;;;;;;5057808;28;20081;-75
2024/01/02 08:43:58;;;;;;;18.95;10.43;;;8.50;99.90;;;;;;5024674;28;20036;-75
2024/01/02 08:46:24;;;;;;;20.73;10.10;;;8.60;99.90;;;;;;5041343;28;20097;-75
2024/01/02 08:48:50;;;;;;;20.08;10.85;;;8.60;99.90;;;;;;5041156;28;20051;-75
2024/01/02 08:51:16;;;;;;;23.90;12.07;;;8.70;99.90;;;;;;5041472;28;20037;-75
2024/01/02 08:53:41;;;;;;;23.70;11.18;;;8.80;99.90;;;;;;5040961;28;20051;-75
2024/01/02 08:56:09;;;;;;;21.80;11.32;;;8.80;99.90;;;;;;5057618;28;20046;-75
2024/01/02 08:58:35;;;;;;;22.90;11.23;;;8.90;99.90;;;;;;5041062;28;20044;-75
2024/01/02 09:01:01;;;;;;;22.17;10.43;;;9.00;99.90;;;;;;5040831;28;20102;-75
2024/01/02 09:03:30;;;;;;;23.73;11.30;;;9.00;99.90;;;;;;5057312;28;20087;-75
2024/01/02 09:05:56;;;;;;;25.27;10.15;;;9.10;99.90;;;;;;5040620;28;20040;-75
2024/01/02 09:08:22;;;;;;;23.80;10.90;;;9.10;99.90;;;;;;5040905;28;20052;-74
2024/01/02 09:10:48;;;;;;;23.08;10.68;;;9.10;99.90;;;;;;5057326;28;20056;-76
2024/01/02 09:13:13;;;;;;;28.92;10.48;;;9.20;99.90;;;;;;5057515;28;20427;-75
2024/01/02 09:15:39;;;;;;;22.63;9.70;;;9.20;99.90;;;;;;5057199;28;20090;-74
2024/01/02 09:18:05;;;;;;;28.52;9.88;;;9.30;99.90;;;;;;5040566;28;20041;-75
2024/01/02 09:20:31;;;;;;;26.33;8.80;;;9.30;99.90;;;;;;5040648;28;20393;-75
2024/01/02 09:22:57;;;;;;;26.33;8.95;;;9.50;99.90;;;;;;5056681;28;20036;-75
2024/01/02 09:25:26;;;;;;;23.30;8.15;;;9.50;99.90;;;;;;5056984;28;20052;-75
2024/01/02 09:27:57;;;;;;;22.52;8.20;;;9.50;99.90;;;;;;5057036;28;20073;-75
2024/01/02 09:30:23;;;;;;;25.75;7.45;;;9.60;99.90;;;;;;5056916;28;20075;-75
2024/01/02 09:32:49;;;;;;;25.38;6.68;;;9.70;99.90;;;;;;5040474;28;20048;-76
2024/01/02 09:35:16;;;;;;;20.05;6.22;;;9.70;99.90;;;;;;5023581;28;20044;-75
2024/01/02 09:37:42;;;;;;;24.60;5.35;;;9.80;99.90;;;;;;5039970;28;20489;-75
2024/01/02 09:40:22;;;;;;;22.92;5.03;;;9.80;99.90;;;;;;5040298;28;20047;-75
2024/01/02 09:43:14;;;;;;;29.35;5.10;;;9.90;99.90;;;;;;5056757;28;20082;-75
2024/01/02 09:46:18;;;;;;;21.17;4.13;;;9.90;99.90;;;;;;5055062;28;20141;-75
2024/01/02 09:49:02;;;;;;;21.90;4.20;;;10.00;99.90;;;;;;5025848;28;20128;-76
2024/01/02 09:51:39;;;;;;;21.73;4.60;;;10.10;99.90;;;;;;5055270;28;20048;-75
2024/01/02 09:54:14;;;;;;;22.02;4.05;;;10.10;99.90;;;;;;5056452;28;20493;-75
2024/01/02 09:57:22;;;;;;;18.33;3.42;;;10.10;99.90;;;;;;5039774;28;20045;-75
2024/01/02 10:00:20;;;;;;;21.70;3.90;;;10.20;99.90;;;;;;5034174;28;20048;-76
2024/01/02 10:03:04;;;;;;;19.95;3.90;;;10.30;99.90;;;;;;5056044;28;20044;-76
2024/01/02 10:05:42;;;;;;;19.42;3.60;;;10.30;99.90;;;;;;5055899;28;20044;-76
2024/01/02 10:08:38;;;;;;;18.20;3.50;;;10.40;99.90;;;;;;5056494;28;20047;-76
2024/01/02 10:11:25;;;;;;;24.73;3.53;;;10.40;99.90;;;;;;5039978;28;20041;-76
2024/01/02 10:14:01;;;;;;;19.85;3.65;;;10.40;99.90;;;;;;5039535;28;20040;-76
2024/01/02 10:16:36;;;;;;;22.70;3.78;;;10.40;99.90;;;;;;5055778;28;20036;-75
2024/01/02 10:19:10;;;;;;;17.80;3.60;;;10.40;99.90;;;;;;5039387;28;20128;-76
2024/01/02 10:22:13;;;;;;;19.65;3.70;;;10.40;99.90;;;;;;5040070;28;20389;-75
2024/01/02 10:25:01;;;;;;;22.17;3.80;;;10.40;99.90;;;;;;5055998;28;20043;-75
2024/01/02 10:27:42;;;;;;;20.58;3.28;;;10.40;99.90;;;;;;5039198;28;20040;-76
2024/01/02 10:30:12;;;;;;;19.52;3.38;;;10.50;99.90;;;;;;5055695;28;20044;-75
2024/01/02 10:33:14;;;;;;;19.63;3.80;;;10.50;99.90;;;;;;5039130;28;20046;-75
2024/01/02 10:35:46;;;;;;;21.05;3.75;;;10.50;99.90;;;;;;5055896;28;20048;-75
2024/01/02 10:38:28;;;;;;;18.45;3.60;;;10.60;99.90;;;;;;5039015;28;20123;-76
2024/01/02 10:41:27;;;;;;;21.70;4.07;;;10.60;99.90;;;;;;5038896;28;20036;-75
2024/01/02 10:44:23;;;;;;;23.95;4.10;;;10.70;99.90;;;;;;5051797;28;20048;-75
2024/01/02 10:47:09;;;;;;;22.75;3.55;;;10.70;99.90;;;;;;5038802;28;20184;-76
2024/01/02 10:49:44;;;;;;;15.57;3.20;;;10.70;99.90;;;;;;5055458;28;20050;-75
2024/01/02 10:52:28;;;;;;;19.38;3.92;;;10.70;99.90;;;;;;5054741;28;20051;-75
2024/01/02 10:55:17;;;;;;;19.38;4.03;;;10.80;99.90;;;;;;5037606;28;20519;-73
2024/01/02 10:57:58;;;;;;;24.65;4.38;;;10.80;99.90;;;;;;5038752;28;20102;-76
2024/01/02 11:00:28;;;;;;;18.95;3.90;;;10.90;99.90;;;;;;5038569;28;20078;-76
2024/01/02 11:03:03;;;;;;;21.48;3.90;;;10.80;99.90;;;;;;5038059;28;20523;-75
2024/01/02 11:05:39;;;;;;;21.30;4.10;;;10.80;99.90;;;;;;5038538;28;20074;-75
2024/01/02 11:08:43;;;;;;;19.58;3.97;;;10.80;99.90;;;;;;5055117;28;20127;-75
2024/01/02 11:11:11;;;;;;;21.48;4.22;;;10.90;99.90;;;;;;5021857;28;20056;-76
2024/01/02 11:13:39;;;;;;;23.55;4.40;;;10.90;99.90;;;;;;5038286;28;20499;-75
2024/01/02 11:16:19;;;;;;;25.10;4.50;;;10.90;99.90;;;;;;5038272;28;20041;-75
2024/01/02 11:18:52;;;;;;;24.95;4.60;;;10.90;99.90;;;;;;5055284;28;20170;-68
2024/01/02 11:21:33;;;;;;;28.75;5.45;;;10.90;99.90;;;;;;5054855;28;20128;-68
2024/01/02 11:24:06;;;;;;;26.00;4.93;;;10.90;99.90;;;;;;5038354;28;20102;-68
2024/01/02 11:26:40;;;;;;;23.92;5.50;;;10.90;99.90;;;;;;5055084;28;20044;-69
2024/01/02 11:29:12;;;;;;;29.35;5.57;;;11.00;99.90;;;;;;5038224;28;20048;-68
2024/01/02 11:31:39;;;;;;;;;;;10.90;99.90;;;;;;5055501;28;20056;-69
2024/01/02 11:34:36;;;;;;;28.40;5.07;;;11.00;99.90;;;;;;5071498;28;19916;-69
2024/01/02 11:37:35;;;;;;;25.95;5.38;;;10.90;99.90;;;;;;5037989;28;20123;-70
2024/01/02 11:40:16;;;;;;;24.77;5.20;;;10.90;99.90;;;;;;5054625;28;20056;-69
2024/01/02 11:42:59;;;;;;;28.33;5.45;;;10.90;99.90;;;;;;5054655;28;20037;-69
2024/01/02 11:45:33;;;;;;;30.90;5.72;;;10.90;99.90;;;;;;5038020;28;20037;-69
2024/01/02 11:48:17;;;;;;;27.10;5.13;;;10.90;99.90;;;;;;5038084;28;20044;-69
2024/01/02 11:51:01;;;;;;;27.75;5.47;;;10.90;99.90;;;;;;5038204;28;20079;-69
2024/01/02 11:53:30;;;;;;;28.17;5.28;;;10.90;99.90;;;;;;5037991;28;20079;-69
2024/01/02 11:56:07;;;;;;;27.50;5.97;;;10.80;99.90;;;;;;5054448;28;20044;-69
2024/01/02 11:59:08;;;;;;;26.40;5.90;;;10.80;99.90;;;;;;5037948;28;20044;-69
2024/01/02 12:02:07;;;;;;;26.25;5.63;;;10.80;99.90;;;;;;5054840;28;20032;-69
2024/01/02 12:05:34;;;;;;;27.77;6.38;;;10.80;99.90;;;;;;5032449;28;20092;-69
2024/01/02 12:08:03;;;;;;;29.75;6.32;;;10.80;99.90;;;;;;4994129;28;20068;-70
2024/01/02 12:10:38;;;;;;;29.15;6.53;;;10.80;99.90;;;;;;4962482;28;20038;-69
2024/01/02 12:13:26;;;;;;;29.85;7.38;;;10.80;99.90;;;;;;5036561;28;20523;-70
2024/01/02 12:15:57;;;;;;;25.90;6.75;;;10.90;99.90;;;;;;5041399;28;20477;-69
2024/01/02 12:18:30;;;;;;;32.78;7.13;;;10.80;99.90;;;;;;5041549;28;20041;-69
2024/01/02 12:21:10;;;;;;;30.52;6.95;;;10.80;99.90;;;;;;5041442;28;20032;-70
2024/01/02 12:23:38;;;;;;;33.78;7.68;;;10.80;99.90;;;;;;5058225;28;20083;-70
2024/01/02 12:26:06;;;;;;;33.25;7.75;;;10.80;99.90;;;;;;5058133;28;20127;-69
2024/01/02 12:28:33;;;;;;;35.85;8.18;;;10.80;99.90;;;;;;5025324;28;20503;-69
2024/01/02 12:31:05;;;;;;;35.25;7.68;;;10.80;99.90;;;;;;5025101;28;20048;-69
2024/01/02 12:33:35;;;;;;;;;;;10.80;99.90;;;;;;5042029;28;20063;-69
2024/01/02 12:36:22;;;;;;;33.28;7.65;;;10.80;99.90;;;;;;5074499;28;19967;-70
2024/01/02 12:38:50;;;;;;;30.08;7.43;;;10.80;99.90;;;;;;5057707;28;20047;-70
2024/01/02 12:41:26;;;;;;;30.30;7.38;;;10.80;99.90;;;;;;5025316;28;20048;-70
2024/01/02 12:43:56;;;;;;;36.10;8.00;;;10.80;99.90;;;;;;5025066;28;20088;-70
2024/01/02 12:46:31;;;;;;;30.23;7.55;;;10.80;99.90;;;;;;5025137;28;20044;-69
2024/01/02 12:49:08;;;;;;;32.90;7.45;;;10.80;99.90;;;;;;5025709;28;20060;-69
2024/01/02 12:51:37;;;;;;;38.33;7.50;;;10.80;99.90;;;;;;5041303;28;20489;-70
2024/01/02 12:54:04;;;;;;;34.60;7.22;;;10.80;99.90;;;;;;5041261;28;20485;-69
2024/01/02 12:56:34;;;;;;;31.50;7.30;;;10.80;99.90;;;;;;5041490;28;20058;-70
2024/01/02 12:59:06;;;;;;;32.30;7.68;;;10.70;99.90;;;;;;5041211;28;20048;-69
2024/01/02 13:01:33;;;;;;;31.77;7.28;;;10.70;99.90;;;;;;5041089;28;20037;-70